createdAt,value
2018-04-17T04:33:29.244Z,0.00
2018-04-17T04:34:29.159Z,0.00
2018-04-17T04:35:29.091Z,0.00
2018-04-17T04:36:29.054Z,0.00
2018-04-17T04:37:29.017Z,0.00
2018-04-17T04:38:28.982Z,0.00
2018-04-17T04:39:28.950Z,0.00
2018-04-17T04:40:28.923Z,0.00
2018-04-17T04:41:28.862Z,0.00
2018-04-17T04:42:28.820Z,0.00
2018-04-17T04:43:28.790Z,0.00
2018-04-17T04:44:28.745Z,5.63
2018-04-17T04:45:28.735Z,5.63
2018-04-17T04:46:28.669Z,5.63
2018-04-17T04:47:28.640Z,5.63
2018-04-17T04:48:28.598Z,5.63
2018-04-17T04:49:28.563Z,5.63
2018-04-17T04:50:28.522Z,5.63
2018-04-17T04:51:28.508Z,5.63
2018-04-17T04:52:28.451Z,5.63
2018-04-17T04:53:28.410Z,5.63
2018-04-17T04:54:28.373Z,5.63
2018-04-17T04:55:28.335Z,5.63
2018-04-17T04:56:28.324Z,11.25
2018-04-17T04:57:28.290Z,11.25
2018-04-17T04:58:28.227Z,11.25
2018-04-17T04:59:28.190Z,11.25
2018-04-17T05:00:28.156Z,11.25
2018-04-17T05:01:28.121Z,11.25
2018-04-17T05:02:28.103Z,11.25
2018-04-17T05:03:28.052Z,11.25
2018-04-17T05:04:28.009Z,11.25
2018-04-17T05:05:27.973Z,11.25
2018-04-17T05:06:27.934Z,11.25
2018-04-17T05:07:27.897Z,16.88
2018-04-17T05:08:28.331Z,16.88
2018-04-17T05:09:28.499Z,16.88
2018-04-17T05:10:27.791Z,16.88
2018-04-17T05:11:28.274Z,16.88
2018-04-17T05:12:27.715Z,16.88
2018-04-17T05:13:27.676Z,16.88
2018-04-17T05:14:27.662Z,16.88
2018-04-17T05:15:27.604Z,16.88
2018-04-17T05:16:27.547Z,16.88
2018-04-17T05:17:27.510Z,16.88
2018-04-17T05:18:27.579Z,22.50
2018-04-17T05:19:27.442Z,22.50
2018-04-17T05:20:27.429Z,22.50
2018-04-17T05:21:27.368Z,22.50
2018-04-17T05:22:27.325Z,22.50
2018-04-17T05:23:27.301Z,22.50
2018-04-17T05:24:27.306Z,22.50
2018-04-17T05:25:27.230Z,22.50
2018-04-17T05:26:27.221Z,22.50
2018-04-17T05:27:27.178Z,22.50
2018-04-17T05:28:27.120Z,28.13
2018-04-17T05:29:27.085Z,28.13
2018-04-17T05:30:27.039Z,28.13
2018-04-17T05:31:27.006Z,28.13
2018-04-17T05:32:27.001Z,28.13
2018-04-17T05:33:26.929Z,28.13
2018-04-17T05:34:26.913Z,28.13
2018-04-17T05:35:26.856Z,28.13
2018-04-17T05:36:26.822Z,28.13
2018-04-17T05:37:26.791Z,28.13
2018-04-17T05:38:26.770Z,28.13
2018-04-17T05:39:26.715Z,28.13
2018-04-17T05:40:26.678Z,33.75
2018-04-17T05:41:26.682Z,33.75
2018-04-17T05:42:26.608Z,33.75
2018-04-17T05:43:26.608Z,33.75
2018-04-17T05:44:26.571Z,33.75
2018-04-17T05:45:26.496Z,33.75
2018-04-17T05:46:26.459Z,33.75
2018-04-17T05:47:26.463Z,33.75
2018-04-17T05:48:26.393Z,33.75
2018-04-17T05:49:26.396Z,33.75
2018-04-17T05:50:26.346Z,33.75
2018-04-17T05:51:26.324Z,33.75
2018-04-17T05:52:26.384Z,39.38
2018-04-17T05:53:26.256Z,39.38
2018-04-17T05:54:26.172Z,39.38
2018-04-17T05:55:26.136Z,39.38
2018-04-17T05:56:26.105Z,39.38
2018-04-17T05:57:26.058Z,39.38
2018-04-17T05:58:26.022Z,39.38
2018-04-17T05:59:26.036Z,39.38
2018-04-17T06:00:25.956Z,39.38
2018-04-17T06:01:25.930Z,39.38
2018-04-17T06:02:25.889Z,39.38
2018-04-17T06:03:25.849Z,39.38
2018-04-17T06:04:25.818Z,39.38
2018-04-17T06:05:25.803Z,45.00
2018-04-17T06:06:25.735Z,45.00
2018-04-17T06:07:25.714Z,45.00
2018-04-17T06:08:25.663Z,45.00
2018-04-17T06:09:25.646Z,45.00
2018-04-17T06:10:25.703Z,45.00
2018-04-17T06:11:25.609Z,45.00
2018-04-17T06:12:25.520Z,45.00
2018-04-17T06:13:25.489Z,45.00
2018-04-17T06:14:25.456Z,45.00
2018-04-17T06:15:25.405Z,45.00
2018-04-17T06:16:25.394Z,45.00
2018-04-17T06:17:25.422Z,45.00
2018-04-17T06:18:25.311Z,45.00
2018-04-17T06:19:25.294Z,45.00
2018-04-17T06:20:25.235Z,50.63
2018-04-17T06:21:25.198Z,50.63
2018-04-17T06:22:25.169Z,50.63
2018-04-17T06:23:25.161Z,50.63
2018-04-17T06:24:25.162Z,50.63
2018-04-17T06:25:25.063Z,50.63
2018-04-17T06:26:25.018Z,50.63
2018-04-17T06:27:24.980Z,50.63
2018-04-17T06:28:24.945Z,50.63
2018-04-17T06:29:25.017Z,50.63
2018-04-17T06:30:24.894Z,50.63
2018-04-17T06:31:24.843Z,50.63
2018-04-17T06:32:24.798Z,50.63
2018-04-17T06:33:24.766Z,50.63
2018-04-17T06:34:24.749Z,50.63
2018-04-17T06:35:24.695Z,50.63
2018-04-17T06:36:24.663Z,50.63
2018-04-17T06:37:24.626Z,56.25
2018-04-17T06:38:24.596Z,56.25
2018-04-17T06:39:24.552Z,56.25
2018-04-17T06:40:24.529Z,56.25
2018-04-17T06:41:24.533Z,56.25
2018-04-17T06:42:24.438Z,56.25
2018-04-17T06:43:24.414Z,56.25
2018-04-17T06:44:24.369Z,56.25
2018-04-17T06:45:24.365Z,56.25
2018-04-17T06:46:24.308Z,56.25
2018-04-17T06:47:24.264Z,56.25
2018-04-17T06:48:24.278Z,56.25
2018-04-17T06:49:24.311Z,56.25
2018-04-17T06:50:24.191Z,56.25
2018-04-17T06:51:24.163Z,56.25
2018-04-17T06:52:24.113Z,56.25
2018-04-17T06:53:24.076Z,56.25
2018-04-17T06:54:24.018Z,56.25
2018-04-17T06:55:23.973Z,56.25
2018-04-17T06:56:24.051Z,56.25
2018-04-17T06:57:24.038Z,56.25
2018-04-17T06:58:23.875Z,56.25
2018-04-17T06:59:34.376Z,56.25
2018-04-17T07:00:23.799Z,56.25
2018-04-17T07:01:23.785Z,56.25
2018-04-17T07:02:23.728Z,56.25
2018-04-17T07:03:23.746Z,61.88
2018-04-17T07:04:23.650Z,61.88
2018-04-17T07:05:23.638Z,61.88
2018-04-17T07:06:23.696Z,61.88
2018-04-17T07:07:23.646Z,61.88
2018-04-17T07:08:23.610Z,61.88
2018-04-17T07:09:23.607Z,61.88
2018-04-17T07:10:23.515Z,61.88
2018-04-17T07:11:23.995Z,61.88
2018-04-17T07:12:24.312Z,61.88
2018-04-17T07:13:23.517Z,61.88
2018-04-17T07:14:23.366Z,61.88
2018-04-17T07:15:23.318Z,61.88
2018-04-17T07:16:24.066Z,61.88
2018-04-17T07:17:23.715Z,61.88
2018-04-17T07:18:23.363Z,61.88
2018-04-17T07:19:23.194Z,61.88
2018-04-17T07:20:23.247Z,61.88
2018-04-17T07:21:23.048Z,61.88
2018-04-17T07:22:23.198Z,61.88
2018-04-17T07:23:23.043Z,61.88
2018-04-17T07:24:22.940Z,61.88
2018-04-17T07:25:22.986Z,61.88
2018-04-17T07:26:22.971Z,61.88
2018-04-17T07:27:22.818Z,61.88
2018-04-17T07:28:22.965Z,61.88
2018-04-17T07:29:22.853Z,61.88
2018-04-17T07:30:22.753Z,61.88
2018-04-17T07:31:22.755Z,61.88
2018-04-17T07:32:23.027Z,61.88
2018-04-17T07:33:22.633Z,61.88
2018-04-17T07:34:22.744Z,61.88
2018-04-17T07:35:23.077Z,61.88
2018-04-17T07:36:22.593Z,61.88
2018-04-17T07:37:22.470Z,61.88
2018-04-17T07:38:22.454Z,61.88
2018-04-17T07:39:23.683Z,61.88
2018-04-17T07:40:27.578Z,61.88
2018-04-17T07:41:31.344Z,61.88
2018-04-17T07:42:54.007Z,61.88
2018-04-17T07:43:25.504Z,61.88
2018-04-17T07:44:25.126Z,61.88
2018-04-17T07:45:25.563Z,61.88
2018-04-17T07:46:29.550Z,61.88
2018-04-17T07:47:23.695Z,61.88
2018-04-17T07:48:24.247Z,61.88
2018-04-17T07:49:39.513Z,61.88
2018-04-17T07:50:22.803Z,61.88
2018-04-17T07:51:23.489Z,61.88
2018-04-17T07:52:22.503Z,61.88
2018-04-17T07:53:22.556Z,61.88
2018-04-17T07:54:21.850Z,61.88
2018-04-17T07:55:21.812Z,61.88
2018-04-17T07:56:21.780Z,61.88
2018-04-17T07:57:21.742Z,61.88
2018-04-17T07:58:21.729Z,61.88
2018-04-17T07:59:21.674Z,61.88
2018-04-17T08:00:21.636Z,61.88
2018-04-17T08:01:21.603Z,61.88
2018-04-17T08:02:21.572Z,61.88
2018-04-17T08:03:21.555Z,61.88
2018-04-17T08:04:21.492Z,61.88
2018-04-17T08:05:21.457Z,61.88
2018-04-17T08:06:21.431Z,61.88
2018-04-17T08:07:21.392Z,61.88
2018-04-17T08:08:21.394Z,61.88
2018-04-17T08:09:21.339Z,61.88
2018-04-17T08:10:21.278Z,61.88
2018-04-17T08:11:21.257Z,61.88
2018-04-17T08:12:21.229Z,61.88
2018-04-17T08:13:21.171Z,61.88
2018-04-17T08:14:21.190Z,67.50
2018-04-17T08:15:21.102Z,67.50
2018-04-17T08:16:21.090Z,67.50
2018-04-17T08:17:21.031Z,67.50
2018-04-17T08:18:21.007Z,67.50
2018-04-17T08:19:20.952Z,67.50
2018-04-17T08:20:21.009Z,67.50
2018-04-17T08:21:20.917Z,67.50
2018-04-17T08:22:20.851Z,67.50
2018-04-17T08:23:20.870Z,67.50
2018-04-17T08:24:20.775Z,67.50
2018-04-17T08:25:20.750Z,67.50
2018-04-17T08:26:20.726Z,67.50
2018-04-17T08:27:21.282Z,67.50
2018-04-17T08:28:20.632Z,67.50
2018-04-17T08:29:20.605Z,67.50
2018-04-17T08:30:20.560Z,67.50
2018-04-17T08:31:20.546Z,67.50
2018-04-17T08:32:20.517Z,67.50
2018-04-17T08:33:20.870Z,67.50
2018-04-17T08:34:28.064Z,67.50
2018-04-17T08:35:20.755Z,67.50
2018-04-17T08:36:21.448Z,67.50
2018-04-17T08:37:20.423Z,67.50
2018-04-17T08:38:20.404Z,67.50
2018-04-17T08:39:20.282Z,67.50
2018-04-17T08:40:20.215Z,67.50
2018-04-17T08:41:20.175Z,67.50
2018-04-17T08:42:20.135Z,67.50
2018-04-17T08:43:20.101Z,67.50
2018-04-17T08:44:20.104Z,67.50
2018-04-17T08:45:20.093Z,67.50
2018-04-17T08:46:20.004Z,67.50
2018-04-17T08:47:19.990Z,67.50
2018-04-17T08:48:20.018Z,67.50
2018-04-17T08:49:19.915Z,67.50
2018-04-17T08:50:19.866Z,67.50
2018-04-17T08:51:19.899Z,67.50
2018-04-17T08:52:19.841Z,67.50
2018-04-17T08:53:19.740Z,67.50
2018-04-17T08:54:19.706Z,67.50
2018-04-17T08:55:19.669Z,67.50
2018-04-17T08:56:19.628Z,67.50
2018-04-17T08:57:19.645Z,67.50
2018-04-17T08:58:19.577Z,67.50
2018-04-17T08:59:19.530Z,67.50
2018-04-17T09:00:19.508Z,67.50
2018-04-17T09:01:19.460Z,67.50
2018-04-17T09:02:19.421Z,67.50
2018-04-17T09:03:19.415Z,67.50
2018-04-17T09:04:19.348Z,67.50
2018-04-17T09:05:19.398Z,67.50
2018-04-17T09:06:19.295Z,67.50
2018-04-17T09:07:19.237Z,67.50
2018-04-17T09:08:19.223Z,67.50
2018-04-17T09:09:19.174Z,67.50
2018-04-17T09:10:19.141Z,67.50
2018-04-17T09:11:19.097Z,67.50
2018-04-17T09:12:19.294Z,67.50
2018-04-17T09:13:19.028Z,67.50
2018-04-17T09:14:19.184Z,67.50
2018-04-17T09:15:18.954Z,67.50
2018-04-17T09:16:18.925Z,67.50
2018-04-17T09:17:18.887Z,73.13
2018-04-17T09:18:18.880Z,67.50
2018-04-17T09:19:18.808Z,67.50
2018-04-17T09:20:18.781Z,67.50
2018-04-17T09:21:18.814Z,67.50
2018-04-17T09:22:18.706Z,67.50
2018-04-17T09:23:18.705Z,67.50
2018-04-17T09:24:18.664Z,67.50
2018-04-17T09:25:18.599Z,67.50
2018-04-17T09:26:18.573Z,73.13
2018-04-17T09:27:18.527Z,73.13
2018-04-17T09:28:18.494Z,73.13
2018-04-17T09:29:18.480Z,73.13
2018-04-17T09:30:18.424Z,73.13
2018-04-17T09:31:18.387Z,73.13
2018-04-17T09:32:18.352Z,73.13
2018-04-17T09:33:18.309Z,73.13
2018-04-17T09:34:18.324Z,73.13
2018-04-17T09:35:18.325Z,73.13
2018-04-17T09:36:18.202Z,73.13
2018-04-17T09:37:18.174Z,73.13
2018-04-17T09:38:18.133Z,73.13
2018-04-17T09:39:18.094Z,73.13
2018-04-17T09:40:18.079Z,73.13
2018-04-17T09:41:18.028Z,73.13
2018-04-17T09:42:17.991Z,73.13
2018-04-17T09:43:17.955Z,73.13
2018-04-17T09:44:17.921Z,73.13
2018-04-17T09:45:17.891Z,73.13
2018-04-17T09:46:17.876Z,73.13
2018-04-17T09:47:17.813Z,73.13
2018-04-17T09:48:17.774Z,73.13
2018-04-17T09:49:17.739Z,73.13
2018-04-17T09:50:17.710Z,73.13
2018-04-17T09:51:17.672Z,73.13
2018-04-17T09:52:17.701Z,73.13
2018-04-17T09:53:17.605Z,73.13
2018-04-17T09:54:17.575Z,73.13
2018-04-17T09:55:17.521Z,73.13
2018-04-17T09:56:17.513Z,73.13
2018-04-17T09:57:17.455Z,73.13
2018-04-17T09:58:17.459Z,73.13
2018-04-17T09:59:17.385Z,73.13
2018-04-17T10:00:17.349Z,73.13
2018-04-17T10:01:17.311Z,73.13
2018-04-17T10:02:17.271Z,73.13
2018-04-17T10:03:17.238Z,73.13
2018-04-17T10:04:17.285Z,73.13
2018-04-17T10:05:17.189Z,73.13
2018-04-17T10:06:17.195Z,73.13
2018-04-17T10:07:17.098Z,73.13
2018-04-17T10:08:17.064Z,73.13
2018-04-17T10:09:17.032Z,73.13
2018-04-17T10:10:17.039Z,73.13
2018-04-17T10:11:16.954Z,78.75
2018-04-17T10:12:16.924Z,78.75
2018-04-17T10:13:16.890Z,78.75
2018-04-17T10:14:16.855Z,73.13
2018-04-17T10:15:16.816Z,73.13
2018-04-17T10:16:16.815Z,78.75
2018-04-17T10:17:16.779Z,78.75
2018-04-17T10:18:16.717Z,78.75
2018-04-17T10:19:16.676Z,78.75
2018-04-17T10:20:16.651Z,78.75
2018-04-17T10:21:16.597Z,78.75
2018-04-17T10:22:16.610Z,78.75
2018-04-17T10:23:16.529Z,78.75
2018-04-17T10:24:16.492Z,78.75
2018-04-17T10:25:16.471Z,78.75
2018-04-17T10:26:16.431Z,78.75
2018-04-17T10:27:16.385Z,78.75
2018-04-17T10:28:16.381Z,78.75
2018-04-17T10:29:16.318Z,84.38
2018-04-17T10:30:16.307Z,90.00
2018-04-17T10:31:16.251Z,78.75
2018-04-17T10:32:16.206Z,78.75
2018-04-17T10:33:16.175Z,78.75
2018-04-17T10:34:16.159Z,78.75
2018-04-17T10:35:16.109Z,78.75
2018-04-17T10:36:16.069Z,78.75
2018-04-17T10:37:16.036Z,78.75
2018-04-17T10:38:16.008Z,78.75
2018-04-17T10:39:15.987Z,78.75
2018-04-17T10:40:15.926Z,78.75
2018-04-17T10:41:15.900Z,78.75
2018-04-17T10:42:15.859Z,78.75
2018-04-17T10:43:15.816Z,78.75
2018-04-17T10:44:15.789Z,78.75
2018-04-17T10:45:15.773Z,73.13
2018-04-17T10:46:15.713Z,78.75
2018-04-17T10:47:15.928Z,78.75
2018-04-17T10:48:15.706Z,78.75
2018-04-17T10:49:15.605Z,78.75
2018-04-17T10:50:15.568Z,78.75
2018-04-17T10:51:15.574Z,78.75
2018-04-17T10:52:15.505Z,78.75
2018-04-17T10:53:15.471Z,78.75
2018-04-17T10:54:15.432Z,84.38
2018-04-17T10:55:15.401Z,78.75
2018-04-17T10:56:15.363Z,84.38
2018-04-17T10:57:15.378Z,84.38
2018-04-17T10:58:15.289Z,78.75
2018-04-17T10:59:16.030Z,84.38
2018-04-17T11:00:15.221Z,84.38
2018-04-17T11:01:15.323Z,84.38
2018-04-17T11:02:16.042Z,84.38
2018-04-17T11:03:15.117Z,84.38
2018-04-17T11:04:15.074Z,84.38
2018-04-17T11:05:15.098Z,84.38
2018-04-17T11:06:15.035Z,84.38
2018-04-17T11:07:14.972Z,84.38
2018-04-17T11:08:14.934Z,84.38
2018-04-17T11:09:14.941Z,84.38
2018-04-17T11:10:14.862Z,84.38
2018-04-17T11:11:14.837Z,84.38
2018-04-17T11:12:14.818Z,84.38
2018-04-17T11:13:14.803Z,84.38
2018-04-17T11:14:14.720Z,84.38
2018-04-17T11:15:14.699Z,84.38
2018-04-17T11:16:14.707Z,84.38
2018-04-17T11:17:14.622Z,84.38
2018-04-17T11:18:14.606Z,78.75
2018-04-17T11:19:14.593Z,84.38
2018-04-17T11:20:14.525Z,84.38
2018-04-17T11:21:14.504Z,84.38
2018-04-17T11:22:15.034Z,84.38
2018-04-17T11:23:14.434Z,84.38
2018-04-17T11:24:15.031Z,84.38
2018-04-17T11:25:14.328Z,78.75
2018-04-17T11:26:15.035Z,73.13
2018-04-17T11:27:15.033Z,84.38
2018-04-17T11:28:14.255Z,84.38
2018-04-17T11:29:14.245Z,84.38
2018-04-17T11:30:14.258Z,84.38
2018-04-17T11:31:14.121Z,84.38
2018-04-17T11:32:14.089Z,84.38
2018-04-17T11:33:14.080Z,84.38
2018-04-17T11:34:14.055Z,84.38
2018-04-17T11:35:14.533Z,84.38
2018-04-17T11:36:14.799Z,84.38
2018-04-17T11:37:13.984Z,84.38
2018-04-17T11:38:13.946Z,84.38
2018-04-17T11:39:13.864Z,84.38
2018-04-17T11:40:13.814Z,84.38
2018-04-17T11:41:13.816Z,84.38
2018-04-17T11:42:13.748Z,84.38
2018-04-17T11:43:13.707Z,84.38
2018-04-17T11:44:13.710Z,84.38
2018-04-17T11:45:14.538Z,84.38
2018-04-17T11:46:13.589Z,84.38
2018-04-17T11:47:13.568Z,84.38
2018-04-17T11:48:13.517Z,84.38
2018-04-17T11:49:13.495Z,84.38
2018-04-17T11:50:14.536Z,84.38
2018-04-17T11:51:13.412Z,84.38
2018-04-17T11:52:13.381Z,90.00
2018-04-17T11:53:13.345Z,90.00
2018-04-17T11:54:13.311Z,90.00
2018-04-17T11:55:13.277Z,90.00
2018-04-17T11:56:13.295Z,84.38
2018-04-17T11:57:13.209Z,84.38
2018-04-17T11:58:13.178Z,84.38
2018-04-17T11:59:13.154Z,84.38
2018-04-17T12:00:13.131Z,84.38
2018-04-17T12:01:13.074Z,84.38
2018-04-17T12:02:13.055Z,84.38
2018-04-17T12:03:12.997Z,90.00
2018-04-17T12:04:12.963Z,90.00
2018-04-17T12:05:13.100Z,90.00
2018-04-17T12:06:12.900Z,90.00
2018-04-17T12:07:12.862Z,90.00
2018-04-17T12:08:12.821Z,90.00
2018-04-17T12:09:12.790Z,90.00
2018-04-17T12:10:12.745Z,90.00
2018-04-17T12:11:12.750Z,90.00
2018-04-17T12:12:12.675Z,90.00
2018-04-17T12:13:12.648Z,90.00
2018-04-17T12:14:12.618Z,90.00
2018-04-17T12:15:12.573Z,90.00
2018-04-17T12:16:12.536Z,90.00
2018-04-17T12:17:12.530Z,90.00
2018-04-17T12:18:12.468Z,90.00
2018-04-17T12:19:12.429Z,90.00
2018-04-17T12:20:12.396Z,90.00
2018-04-17T12:21:12.366Z,90.00
2018-04-17T12:22:12.331Z,90.00
2018-04-17T12:23:12.313Z,95.63
2018-04-17T12:24:12.257Z,95.63
2018-04-17T12:25:12.225Z,95.63
2018-04-17T12:26:12.189Z,95.63
2018-04-17T12:27:12.158Z,95.63
2018-04-17T12:28:12.114Z,95.63
2018-04-17T12:29:12.105Z,95.63
2018-04-17T12:30:12.045Z,95.63
2018-04-17T12:31:12.015Z,95.63
2018-04-17T12:32:11.976Z,95.63
2018-04-17T12:33:11.952Z,95.63
2018-04-17T12:34:11.907Z,95.63
2018-04-17T12:35:11.904Z,101.25
2018-04-17T12:36:11.850Z,101.25
2018-04-17T12:37:11.798Z,101.25
2018-04-17T12:38:11.767Z,101.25
2018-04-17T12:39:11.731Z,101.25
2018-04-17T12:40:11.704Z,101.25
2018-04-17T12:41:11.686Z,101.25
2018-04-17T12:42:11.632Z,106.88
2018-04-17T12:43:11.592Z,106.88
2018-04-17T12:44:11.557Z,106.88
2018-04-17T12:45:11.526Z,106.88
2018-04-17T12:46:11.492Z,106.88
2018-04-17T12:47:11.479Z,112.50
2018-04-17T12:48:11.419Z,112.50
2018-04-17T12:49:11.383Z,118.13
2018-04-17T12:50:11.344Z,118.13
2018-04-17T12:51:11.306Z,123.75
2018-04-17T12:52:11.279Z,123.75
2018-04-17T12:53:11.271Z,123.75
2018-04-17T12:54:11.208Z,129.38
2018-04-17T12:55:11.169Z,129.38
2018-04-17T12:56:11.133Z,135.00
2018-04-17T12:57:11.109Z,135.00
2018-04-17T12:58:11.090Z,140.63
2018-04-17T12:59:11.029Z,146.25
2018-04-17T13:00:11.000Z,151.88
2018-04-17T13:01:10.965Z,146.25
2018-04-17T13:02:10.928Z,174.38
2018-04-17T13:03:10.898Z,185.63
2018-04-17T13:04:10.875Z,180.00
2018-04-17T13:05:10.828Z,174.38
2018-04-17T13:06:10.792Z,174.38
2018-04-17T13:07:10.755Z,174.38
2018-04-17T13:08:10.719Z,168.75
2018-04-17T13:09:10.689Z,174.38
2018-04-17T13:10:10.686Z,185.63
2018-04-17T13:11:10.615Z,191.25
2018-04-17T13:12:10.581Z,185.63
2018-04-17T13:13:10.547Z,191.25
2018-04-17T13:14:10.514Z,196.88
2018-04-17T13:15:10.501Z,196.88
2018-04-17T13:16:10.441Z,196.88
2018-04-17T13:17:10.405Z,202.50
2018-04-17T13:18:10.376Z,196.88
2018-04-17T13:19:10.338Z,191.25
2018-04-17T13:20:10.304Z,185.63
2018-04-17T13:21:10.303Z,101.25
2018-04-17T13:22:10.236Z,185.63
2018-04-17T13:23:10.210Z,191.25
2018-04-17T13:24:10.174Z,191.25
2018-04-17T13:25:10.140Z,196.88
2018-04-17T13:26:10.096Z,196.88
2018-04-17T13:27:10.083Z,191.25
2018-04-17T13:28:10.032Z,185.63
2018-04-17T13:29:10.001Z,191.25
2018-04-17T13:30:09.958Z,191.25
2018-04-17T13:31:09.936Z,191.25
2018-04-17T13:32:09.913Z,191.25
2018-04-17T13:33:09.871Z,191.25
2018-04-17T13:34:09.828Z,196.88
2018-04-17T13:35:09.791Z,196.88
2018-04-17T13:36:09.761Z,135.00
2018-04-17T13:37:09.732Z,202.50
2018-04-17T13:38:09.709Z,202.50
2018-04-17T13:39:09.655Z,202.50
2018-04-17T13:40:09.620Z,202.50
2018-04-17T13:41:09.588Z,208.13
2018-04-17T13:42:09.561Z,219.38
2018-04-17T13:43:09.548Z,225.00
2018-04-17T13:44:09.520Z,219.38
2018-04-17T13:45:09.452Z,213.75
2018-04-17T13:46:09.425Z,213.75
2018-04-17T13:47:09.379Z,213.75
2018-04-17T13:48:09.347Z,213.75
2018-04-17T13:49:09.338Z,202.50
2018-04-17T13:50:09.289Z,196.88
2018-04-17T13:51:09.243Z,191.25
2018-04-17T13:52:09.222Z,146.25
2018-04-17T13:53:09.177Z,196.88
2018-04-17T13:54:09.203Z,202.50
2018-04-17T13:55:09.111Z,213.75
2018-04-17T13:56:09.078Z,213.75
2018-04-17T13:57:09.047Z,118.13
2018-04-17T13:58:09.015Z,118.13
2018-04-17T13:59:08.985Z,118.13
2018-04-17T14:00:08.975Z,112.50
2018-04-17T14:01:08.908Z,112.50
2018-04-17T14:02:08.871Z,106.88
2018-04-17T14:03:08.842Z,112.50
2018-04-17T14:04:08.839Z,213.75
2018-04-17T14:05:08.774Z,219.38
2018-04-17T14:06:08.736Z,230.63
2018-04-17T14:07:08.731Z,225.00
2018-04-17T14:08:08.673Z,225.00
2018-04-17T14:09:08.644Z,225.00
2018-04-17T14:10:08.610Z,230.63
2018-04-17T14:11:08.573Z,225.00
2018-04-17T14:12:08.533Z,225.00
2018-04-17T14:13:08.539Z,225.00
2018-04-17T14:14:08.470Z,225.00
2018-04-17T14:15:08.434Z,225.00
2018-04-17T14:16:08.411Z,230.63
2018-04-17T14:17:08.404Z,230.63
2018-04-17T14:18:08.331Z,236.25
2018-04-17T14:19:08.330Z,236.25
2018-04-17T14:20:08.265Z,230.63
2018-04-17T14:21:08.235Z,236.25
2018-04-17T14:22:08.202Z,241.88
2018-04-17T14:23:08.169Z,241.88
2018-04-17T14:24:08.133Z,241.88
2018-04-17T14:25:08.129Z,236.25
2018-04-17T14:26:08.064Z,236.25
2018-04-17T14:27:08.031Z,230.63
2018-04-17T14:28:08.003Z,225.00
2018-04-17T14:29:07.968Z,219.38
2018-04-17T14:30:07.935Z,225.00
2018-04-17T14:31:07.921Z,185.63
2018-04-17T14:32:07.868Z,219.38
2018-04-17T14:33:07.832Z,213.75
2018-04-17T14:34:07.810Z,213.75
2018-04-17T14:35:07.761Z,219.38
2018-04-17T14:36:07.736Z,213.75
2018-04-17T14:37:07.719Z,219.38
2018-04-17T14:38:07.663Z,219.38
2018-04-17T14:39:07.631Z,225.00
2018-04-17T14:40:07.602Z,202.50
2018-04-17T14:41:07.561Z,123.75
2018-04-17T14:42:07.528Z,196.88
2018-04-17T14:43:07.573Z,225.00
2018-04-17T14:44:07.462Z,219.38
2018-04-17T14:45:07.427Z,123.75
2018-04-17T14:46:07.397Z,123.75
2018-04-17T14:47:07.361Z,174.38
2018-04-17T14:48:07.328Z,185.63
2018-04-17T14:49:07.325Z,208.13
2018-04-17T14:50:07.264Z,213.75
2018-04-17T14:51:07.231Z,208.13
2018-04-17T14:52:07.198Z,208.13
2018-04-17T14:53:07.167Z,213.75
2018-04-17T14:54:07.129Z,213.75
2018-04-17T14:55:07.118Z,213.75
2018-04-17T14:56:07.059Z,213.75
2018-04-17T14:57:07.036Z,213.75
2018-04-17T14:58:07.001Z,208.13
2018-04-17T14:59:06.974Z,208.13
2018-04-17T15:00:06.933Z,208.13
2018-04-17T15:01:06.928Z,208.13
2018-04-17T15:02:06.859Z,208.13
2018-04-17T15:03:06.827Z,208.13
2018-04-17T15:04:06.805Z,202.50
2018-04-17T15:05:06.766Z,202.50
2018-04-17T15:06:06.730Z,202.50
2018-04-17T15:07:06.717Z,208.13
2018-04-17T15:08:06.660Z,202.50
2018-04-17T15:09:06.641Z,202.50
2018-04-17T15:10:06.598Z,202.50
2018-04-17T15:11:06.570Z,202.50
2018-04-17T15:12:06.529Z,202.50
2018-04-17T15:13:06.528Z,202.50
2018-04-17T15:14:06.460Z,202.50
2018-04-17T15:15:06.423Z,202.50
2018-04-17T15:16:06.397Z,202.50
2018-04-17T15:17:06.364Z,202.50
2018-04-17T15:18:06.329Z,202.50
2018-04-17T15:19:06.321Z,202.50
2018-04-17T15:20:06.264Z,202.50
2018-04-17T15:21:06.242Z,202.50
2018-04-17T15:22:06.196Z,202.50
2018-04-17T15:23:06.165Z,202.50
2018-04-17T15:24:06.126Z,202.50
2018-04-17T15:25:06.127Z,202.50
2018-04-17T15:26:06.058Z,202.50
2018-04-17T15:27:06.027Z,202.50
2018-04-17T15:28:06.025Z,196.88
2018-04-17T15:29:05.966Z,208.13
2018-04-17T15:30:05.930Z,202.50
2018-04-17T15:31:05.919Z,196.88
2018-04-17T15:32:05.862Z,196.88
2018-04-17T15:33:05.856Z,196.88
2018-04-17T15:34:05.794Z,196.88
2018-04-17T15:35:05.762Z,196.88
2018-04-17T15:36:05.727Z,191.25
2018-04-17T15:37:05.716Z,196.88
2018-04-17T15:38:05.674Z,196.88
2018-04-17T15:39:05.626Z,191.25
2018-04-17T15:40:05.600Z,191.25
2018-04-17T15:41:05.560Z,191.25
2018-04-17T15:42:05.527Z,191.25
2018-04-17T15:43:05.515Z,191.25
2018-04-17T15:44:05.479Z,191.25
2018-04-17T15:45:05.426Z,191.25
2018-04-17T15:46:05.396Z,191.25
2018-04-17T15:47:05.366Z,191.25
2018-04-17T15:48:05.335Z,191.25
2018-04-17T15:49:05.327Z,191.25
2018-04-17T15:50:05.271Z,191.25
2018-04-17T15:51:05.238Z,191.25
2018-04-17T15:52:05.207Z,191.25
2018-04-17T15:53:05.194Z,191.25
2018-04-17T15:54:05.137Z,191.25
2018-04-17T15:55:05.103Z,185.63
2018-04-17T15:56:05.064Z,180.00
2018-04-17T15:57:05.040Z,185.63
2018-04-17T15:58:05.013Z,185.63
2018-04-17T15:59:04.994Z,185.63
2018-04-17T16:00:04.938Z,185.63
2018-04-17T16:01:04.900Z,180.00
2018-04-17T16:02:04.873Z,180.00
2018-04-17T16:03:04.841Z,180.00
2018-04-17T16:04:04.802Z,180.00
2018-04-17T16:05:04.795Z,180.00
2018-04-17T16:06:04.744Z,180.00
2018-04-17T16:07:04.703Z,168.75
2018-04-17T16:08:04.670Z,168.75
2018-04-17T16:09:04.637Z,163.13
2018-04-17T16:10:04.631Z,163.13
2018-04-17T16:11:04.598Z,151.88
2018-04-17T16:12:04.536Z,157.50
2018-04-17T16:13:04.504Z,163.13
2018-04-17T16:14:04.470Z,168.75
2018-04-17T16:15:04.445Z,157.50
2018-04-17T16:16:04.413Z,180.00
2018-04-17T16:17:04.397Z,180.00
2018-04-17T16:18:04.346Z,185.63
2018-04-17T16:19:04.310Z,185.63
2018-04-17T16:20:04.278Z,185.63
2018-04-17T16:21:04.245Z,185.63
2018-04-17T16:22:04.209Z,180.00
2018-04-17T16:23:04.199Z,180.00
2018-04-17T16:24:04.145Z,180.00
2018-04-17T16:25:04.117Z,174.38
2018-04-17T16:26:04.079Z,174.38
2018-04-17T16:27:04.102Z,168.75
2018-04-17T16:28:04.011Z,163.13
2018-04-17T16:29:04.003Z,163.13
2018-04-17T16:30:03.951Z,163.13
2018-04-17T16:31:03.914Z,163.13
2018-04-17T16:32:03.883Z,163.13
2018-04-17T16:33:03.928Z,163.13
2018-04-17T16:34:03.812Z,157.50
2018-04-17T16:35:03.807Z,157.50
2018-04-17T16:36:03.749Z,163.13
2018-04-17T16:37:03.712Z,157.50
2018-04-17T16:38:03.676Z,157.50
2018-04-17T16:39:03.653Z,157.50
2018-04-17T16:40:03.616Z,151.88
2018-04-17T16:41:03.615Z,151.88
2018-04-17T16:42:03.546Z,151.88
2018-04-17T16:43:03.518Z,151.88
2018-04-17T16:44:03.487Z,146.25
2018-04-17T16:45:03.452Z,146.25
2018-04-17T16:46:03.415Z,129.38
2018-04-17T16:47:03.412Z,146.25
2018-04-17T16:48:03.349Z,151.88
2018-04-17T16:49:03.317Z,151.88
2018-04-17T16:50:03.283Z,146.25
2018-04-17T16:51:03.255Z,146.25
2018-04-17T16:52:03.222Z,146.25
2018-04-17T16:53:03.215Z,146.25
2018-04-17T16:54:03.152Z,146.25
2018-04-17T16:55:03.123Z,146.25
2018-04-17T16:56:03.095Z,146.25
2018-04-17T16:57:03.057Z,146.25
2018-04-17T16:58:03.022Z,140.63
2018-04-17T16:59:03.008Z,140.63
2018-04-17T17:00:02.961Z,135.00
2018-04-17T17:01:02.919Z,140.63
2018-04-17T17:02:02.897Z,140.63
2018-04-17T17:03:02.857Z,140.63
2018-04-17T17:04:02.821Z,140.63
2018-04-17T17:05:02.823Z,135.00
2018-04-17T17:06:02.754Z,135.00
2018-04-17T17:07:02.719Z,135.00
2018-04-17T17:08:02.695Z,129.38
2018-04-17T17:09:02.655Z,129.38
2018-04-17T17:10:02.628Z,129.38
2018-04-17T17:11:02.620Z,123.75
2018-04-17T17:12:02.557Z,123.75
2018-04-17T17:13:02.538Z,118.13
2018-04-17T17:14:02.492Z,118.13
2018-04-17T17:15:02.460Z,118.13
2018-04-17T17:16:02.428Z,118.13
2018-04-17T17:17:02.417Z,112.50